sensor_id;sensor_type;location;lat;lon;timestamp;P1;durP1;ratioP1;P2;durP2;ratioP2
48554;SDS011;34336;48.270;16.716;2024-02-21T00:01:35;8.18;;;4.22;;
48554;SDS011;34336;48.270;16.716;2024-02-21T00:04:03;10.07;;;4.70;;
48554;SDS011;34336;48.270;16.716;2024-02-21T00:06:31;9.25;;;4.55;;
48554;SDS011;34336;48.270;16.716;2024-02-21T00:08:59;9.68;;;4.20;;
48554;SDS011;34336;48.270;16.716;2024-02-21T00:11:27;12.65;;;4.50;;
48554;SDS011;34336;48.270;16.716;2024-02-21T00:13:55;8.32;;;4.22;;
48554;SDS011;34336;48.270;16.716;2024-02-21T00:16:23;12.00;;;4.20;;
48554;SDS011;34336;48.270;16.716;2024-02-21T00:18:50;11.57;;;4.10;;
48554;SDS011;34336;48.270;16.716;2024-02-21T00:21:18;8.88;;;4.18;;
48554;SDS011;34336;48.270;16.716;2024-02-21T00:23:46;9.38;;;3.97;;
48554;SDS011;34336;48.270;16.716;2024-02-21T00:26:14;5.97;;;3.80;;
48554;SDS011;34336;48.270;16.716;2024-02-21T00:28:42;8.82;;;4.03;;
48554;SDS011;34336;48.270;16.716;2024-02-21T00:31:10;10.00;;;4.25;;
48554;SDS011;34336;48.270;16.716;2024-02-21T00:33:38;12.27;;;4.53;;
48554;SDS011;34336;48.270;16.716;2024-02-21T00:36:06;9.68;;;4.20;;
48554;SDS011;34336;48.270;16.716;2024-02-21T00:38:33;9.27;;;4.20;;
48554;SDS011;34336;48.270;16.716;2024-02-21T00:41:01;9.95;;;4.28;;
48554;SDS011;34336;48.270;16.716;2024-02-21T00:43:29;9.70;;;4.20;;
48554;SDS011;34336;48.270;16.716;2024-02-21T00:45:57;13.00;;;4.25;;
48554;SDS011;34336;48.270;16.716;2024-02-21T00:48:24;8.52;;;4.50;;
48554;SDS011;34336;48.270;16.716;2024-02-21T00:50:52;10.77;;;3.80;;
48554;SDS011;34336;48.270;16.716;2024-02-21T00:53:20;9.77;;;4.15;;
48554;SDS011;34336;48.270;16.716;2024-02-21T00:55:47;8.75;;;4.35;;
48554;SDS011;34336;48.270;16.716;2024-02-21T00:58:15;11.30;;;4.18;;
48554;SDS011;34336;48.270;16.716;2024-02-21T01:00:43;8.57;;;3.75;;
48554;SDS011;34336;48.270;16.716;2024-02-21T01:03:10;8.45;;;4.05;;
48554;SDS011;34336;48.270;16.716;2024-02-21T01:05:38;13.07;;;4.70;;
48554;SDS011;34336;48.270;16.716;2024-02-21T01:08:06;8.23;;;4.20;;
48554;SDS011;34336;48.270;16.716;2024-02-21T01:10:33;10.45;;;4.10;;
48554;SDS011;34336;48.270;16.716;2024-02-21T01:13:01;10.02;;;4.28;;
48554;SDS011;34336;48.270;16.716;2024-02-21T01:15:29;12.98;;;4.45;;
48554;SDS011;34336;48.270;16.716;2024-02-21T01:17:57;10.18;;;3.92;;
48554;SDS011;34336;48.270;16.716;2024-02-21T01:20:25;8.35;;;4.05;;
48554;SDS011;34336;48.270;16.716;2024-02-21T01:22:52;8.00;;;3.53;;
48554;SDS011;34336;48.270;16.716;2024-02-21T01:25:20;7.80;;;3.38;;
48554;SDS011;34336;48.270;16.716;2024-02-21T01:27:48;10.35;;;4.28;;
48554;SDS011;34336;48.270;16.716;2024-02-21T01:30:15;11.23;;;4.15;;
48554;SDS011;34336;48.270;16.716;2024-02-21T01:32:43;9.85;;;4.47;;
48554;SDS011;34336;48.270;16.716;2024-02-21T01:35:11;9.18;;;3.90;;
48554;SDS011;34336;48.270;16.716;2024-02-21T01:37:39;8.55;;;4.05;;
48554;SDS011;34336;48.270;16.716;2024-02-21T01:40:07;10.68;;;4.07;;
48554;SDS011;34336;48.270;16.716;2024-02-21T01:42:38;6.70;;;3.40;;
48554;SDS011;34336;48.270;16.716;2024-02-21T01:45:07;13.77;;;4.13;;
48554;SDS011;34336;48.270;16.716;2024-02-21T01:47:36;8.43;;;3.55;;
48554;SDS011;34336;48.270;16.716;2024-02-21T01:50:04;9.63;;;3.53;;
48554;SDS011;34336;48.270;16.716;2024-02-21T01:52:32;7.00;;;4.05;;
48554;SDS011;34336;48.270;16.716;2024-02-21T01:55:02;10.23;;;3.72;;
48554;SDS011;34336;48.270;16.716;2024-02-21T01:57:30;8.60;;;3.88;;
48554;SDS011;34336;48.270;16.716;2024-02-21T01:59:57;10.02;;;3.75;;
48554;SDS011;34336;48.270;16.716;2024-02-21T02:02:25;11.30;;;4.10;;
48554;SDS011;34336;48.270;16.716;2024-02-21T02:04:53;12.80;;;3.65;;
48554;SDS011;34336;48.270;16.716;2024-02-21T02:07:21;11.00;;;3.88;;
48554;SDS011;34336;48.270;16.716;2024-02-21T02:09:49;6.97;;;3.10;;
48554;SDS011;34336;48.270;16.716;2024-02-21T02:12:17;7.95;;;3.42;;
48554;SDS011;34336;48.270;16.716;2024-02-21T02:14:44;9.43;;;3.45;;
48554;SDS011;34336;48.270;16.716;2024-02-21T02:17:13;7.45;;;3.78;;
48554;SDS011;34336;48.270;16.716;2024-02-21T02:19:41;12.18;;;3.75;;
48554;SDS011;34336;48.270;16.716;2024-02-21T02:22:13;10.18;;;3.80;;
48554;SDS011;34336;48.270;16.716;2024-02-21T02:24:43;8.80;;;3.63;;
48554;SDS011;34336;48.270;16.716;2024-02-21T02:27:11;8.30;;;3.97;;
48554;SDS011;34336;48.270;16.716;2024-02-21T02:29:39;15.80;;;4.03;;
48554;SDS011;34336;48.270;16.716;2024-02-21T02:32:07;9.10;;;3.40;;
48554;SDS011;34336;48.270;16.716;2024-02-21T02:34:35;10.93;;;3.72;;
48554;SDS011;34336;48.270;16.716;2024-02-21T02:37:03;14.43;;;4.07;;
48554;SDS011;34336;48.270;16.716;2024-02-21T02:39:30;8.88;;;3.58;;
48554;SDS011;34336;48.270;16.716;2024-02-21T02:41:58;9.07;;;4.25;;
48554;SDS011;34336;48.270;16.716;2024-02-21T02:44:26;12.68;;;4.00;;
48554;SDS011;34336;48.270;16.716;2024-02-21T02:46:54;9.75;;;3.33;;
48554;SDS011;34336;48.270;16.716;2024-02-21T02:49:21;12.18;;;3.72;;
48554;SDS011;34336;48.270;16.716;2024-02-21T02:51:49;10.18;;;3.90;;
48554;SDS011;34336;48.270;16.716;2024-02-21T02:54:17;8.73;;;3.55;;
48554;SDS011;34336;48.270;16.716;2024-02-21T02:56:45;7.85;;;3.85;;
48554;SDS011;34336;48.270;16.716;2024-02-21T02:59:13;9.30;;;3.65;;
48554;SDS011;34336;48.270;16.716;2024-02-21T03:01:40;8.20;;;3.65;;
48554;SDS011;34336;48.270;16.716;2024-02-21T03:04:08;9.55;;;3.85;;
48554;SDS011;34336;48.270;16.716;2024-02-21T03:06:36;7.65;;;3.40;;
48554;SDS011;34336;48.270;16.716;2024-02-21T03:09:04;7.05;;;3.40;;
48554;SDS011;34336;48.270;16.716;2024-02-21T03:11:35;6.45;;;3.65;;
48554;SDS011;34336;48.270;16.716;2024-02-21T03:14:04;9.48;;;3.90;;
48554;SDS011;34336;48.270;16.716;2024-02-21T03:16:31;10.68;;;3.40;;
48554;SDS011;34336;48.270;16.716;2024-02-21T03:18:59;7.50;;;3.60;;
48554;SDS011;34336;48.270;16.716;2024-02-21T03:21:27;9.65;;;3.67;;
48554;SDS011;34336;48.270;16.716;2024-02-21T03:23:55;11.57;;;3.50;;
48554;SDS011;34336;48.270;16.716;2024-02-21T03:26:22;10.60;;;3.75;;
48554;SDS011;34336;48.270;16.716;2024-02-21T03:28:50;8.13;;;3.25;;
48554;SDS011;34336;48.270;16.716;2024-02-21T03:31:18;9.57;;;3.72;;
48554;SDS011;34336;48.270;16.716;2024-02-21T03:33:45;9.52;;;3.42;;
48554;SDS011;34336;48.270;16.716;2024-02-21T03:36:13;13.00;;;3.85;;
48554;SDS011;34336;48.270;16.716;2024-02-21T03:38:42;8.75;;;3.58;;
48554;SDS011;34336;48.270;16.716;2024-02-21T03:41:10;8.93;;;3.30;;
48554;SDS011;34336;48.270;16.716;2024-02-21T03:43:38;9.82;;;3.78;;
48554;SDS011;34336;48.270;16.716;2024-02-21T03:46:06;11.77;;;4.53;;
48554;SDS011;34336;48.270;16.716;2024-02-21T03:48:34;5.43;;;3.17;;
48554;SDS011;34336;48.270;16.716;2024-02-21T03:51:01;13.85;;;3.63;;
48554;SDS011;34336;48.270;16.716;2024-02-21T03:53:29;10.52;;;3.67;;
48554;SDS011;34336;48.270;16.716;2024-02-21T03:55:57;7.78;;;3.38;;
48554;SDS011;34336;48.270;16.716;2024-02-21T04:00:57;12.40;;;3.45;;
48554;SDS011;34336;48.270;16.716;2024-02-21T04:03:27;5.85;;;2.97;;
48554;SDS011;34336;48.270;16.716;2024-02-21T04:05:55;12.40;;;3.28;;
48554;SDS011;34336;48.270;16.716;2024-02-21T04:08:22;7.50;;;3.47;;
48554;SDS011;34336;48.270;16.716;2024-02-21T04:10:50;8.95;;;3.40;;
48554;SDS011;34336;48.270;16.716;2024-02-21T04:13:18;6.32;;;2.80;;
48554;SDS011;34336;48.270;16.716;2024-02-21T04:15:45;9.90;;;3.75;;
48554;SDS011;34336;48.270;16.716;2024-02-21T04:18:13;9.57;;;3.30;;
48554;SDS011;34336;48.270;16.716;2024-02-21T04:20:41;7.55;;;3.05;;
48554;SDS011;34336;48.270;16.716;2024-02-21T04:23:09;8.77;;;3.53;;
48554;SDS011;34336;48.270;16.716;2024-02-21T04:25:37;8.57;;;3.45;;
48554;SDS011;34336;48.270;16.716;2024-02-21T04:28:05;10.70;;;3.78;;
48554;SDS011;34336;48.270;16.716;2024-02-21T04:30:32;10.68;;;3.53;;
48554;SDS011;34336;48.270;16.716;2024-02-21T04:33:00;7.88;;;3.30;;
48554;SDS011;34336;48.270;16.716;2024-02-21T04:35:28;11.98;;;3.20;;
48554;SDS011;34336;48.270;16.716;2024-02-21T04:37:55;8.18;;;3.50;;
48554;SDS011;34336;48.270;16.716;2024-02-21T04:40:23;10.70;;;3.45;;
48554;SDS011;34336;48.270;16.716;2024-02-21T04:42:51;8.77;;;3.72;;
48554;SDS011;34336;48.270;16.716;2024-02-21T04:45:18;9.10;;;3.33;;
48554;SDS011;34336;48.270;16.716;2024-02-21T04:47:46;9.73;;;3.60;;
48554;SDS011;34336;48.270;16.716;2024-02-21T04:50:14;9.40;;;3.47;;
48554;SDS011;34336;48.270;16.716;2024-02-21T04:52:42;10.45;;;4.13;;
48554;SDS011;34336;48.270;16.716;2024-02-21T04:55:10;8.77;;;3.45;;
48554;SDS011;34336;48.270;16.716;2024-02-21T04:57:38;9.27;;;3.17;;
48554;SDS011;34336;48.270;16.716;2024-02-21T05:00:06;11.77;;;3.22;;
48554;SDS011;34336;48.270;16.716;2024-02-21T05:02:34;9.05;;;3.40;;
48554;SDS011;34336;48.270;16.716;2024-02-21T05:05:01;6.38;;;3.17;;
48554;SDS011;34336;48.270;16.716;2024-02-21T05:07:29;7.32;;;3.60;;
48554;SDS011;34336;48.270;16.716;2024-02-21T05:09:57;9.98;;;4.05;;
48554;SDS011;34336;48.270;16.716;2024-02-21T05:12:24;7.75;;;3.47;;
48554;SDS011;34336;48.270;16.716;2024-02-21T05:14:52;7.15;;;3.47;;
48554;SDS011;34336;48.270;16.716;2024-02-21T05:17:20;7.97;;;3.22;;
48554;SDS011;34336;48.270;16.716;2024-02-21T05:19:48;10.52;;;3.70;;
48554;SDS011;34336;48.270;16.716;2024-02-21T05:22:15;10.05;;;3.60;;
48554;SDS011;34336;48.270;16.716;2024-02-21T05:24:43;10.15;;;3.63;;
48554;SDS011;34336;48.270;16.716;2024-02-21T05:27:11;8.00;;;3.58;;
48554;SDS011;34336;48.270;16.716;2024-02-21T05:29:38;11.02;;;3.78;;
48554;SDS011;34336;48.270;16.716;2024-02-21T05:32:06;8.40;;;3.50;;
48554;SDS011;34336;48.270;16.716;2024-02-21T05:34:34;9.93;;;3.45;;
48554;SDS011;34336;48.270;16.716;2024-02-21T05:37:02;8.80;;;3.03;;
48554;SDS011;34336;48.270;16.716;2024-02-21T05:39:29;12.10;;;3.95;;
48554;SDS011;34336;48.270;16.716;2024-02-21T05:41:57;8.93;;;3.88;;
48554;SDS011;34336;48.270;16.716;2024-02-21T05:44:25;9.45;;;3.25;;
48554;SDS011;34336;48.270;16.716;2024-02-21T05:46:53;9.00;;;3.85;;
48554;SDS011;34336;48.270;16.716;2024-02-21T05:49:21;9.60;;;3.42;;
48554;SDS011;34336;48.270;16.716;2024-02-21T05:51:50;6.78;;;2.90;;
48554;SDS011;34336;48.270;16.716;2024-02-21T05:54:17;8.32;;;3.05;;
48554;SDS011;34336;48.270;16.716;2024-02-21T05:56:45;11.10;;;5.50;;
48554;SDS011;34336;48.270;16.716;2024-02-21T05:59:13;7.30;;;3.55;;
48554;SDS011;34336;48.270;16.716;2024-02-21T06:01:41;8.70;;;3.38;;
48554;SDS011;34336;48.270;16.716;2024-02-21T06:04:08;6.32;;;2.80;;
48554;SDS011;34336;48.270;16.716;2024-02-21T06:06:36;9.20;;;3.60;;
48554;SDS011;34336;48.270;16.716;2024-02-21T06:09:04;8.98;;;3.65;;
48554;SDS011;34336;48.270;16.716;2024-02-21T06:11:31;11.18;;;3.42;;
48554;SDS011;34336;48.270;16.716;2024-02-21T06:13:59;8.63;;;3.38;;
48554;SDS011;34336;48.270;16.716;2024-02-21T06:16:27;8.77;;;3.35;;
48554;SDS011;34336;48.270;16.716;2024-02-21T06:18:55;13.13;;;3.80;;
48554;SDS011;34336;48.270;16.716;2024-02-21T06:21:22;11.95;;;4.00;;
48554;SDS011;34336;48.270;16.716;2024-02-21T06:23:50;11.60;;;3.70;;
48554;SDS011;34336;48.270;16.716;2024-02-21T06:26:18;11.30;;;3.67;;
48554;SDS011;34336;48.270;16.716;2024-02-21T06:28:45;9.98;;;3.50;;
48554;SDS011;34336;48.270;16.716;2024-02-21T06:31:13;8.52;;;3.65;;
48554;SDS011;34336;48.270;16.716;2024-02-21T06:33:42;9.00;;;3.80;;
48554;SDS011;34336;48.270;16.716;2024-02-21T06:36:10;8.20;;;3.55;;
48554;SDS011;34336;48.270;16.716;2024-02-21T06:38:38;6.75;;;3.72;;
48554;SDS011;34336;48.270;16.716;2024-02-21T06:41:14;9.10;;;3.95;;
48554;SDS011;34336;48.270;16.716;2024-02-21T06:43:41;12.90;;;3.72;;
48554;SDS011;34336;48.270;16.716;2024-02-21T06:46:09;8.75;;;3.00;;
48554;SDS011;34336;48.270;16.716;2024-02-21T06:48:37;11.07;;;3.70;;
48554;SDS011;34336;48.270;16.716;2024-02-21T06:51:05;11.15;;;4.00;;
48554;SDS011;34336;48.270;16.716;2024-02-21T06:53:33;9.30;;;3.75;;
48554;SDS011;34336;48.270;16.716;2024-02-21T06:56:01;13.05;;;3.50;;
48554;SDS011;34336;48.270;16.716;2024-02-21T06:58:28;12.70;;;4.15;;
48554;SDS011;34336;48.270;16.716;2024-02-21T07:00:56;10.32;;;3.40;;
48554;SDS011;34336;48.270;16.716;2024-02-21T07:03:24;9.25;;;3.53;;
48554;SDS011;34336;48.270;16.716;2024-02-21T07:05:51;9.45;;;3.80;;
48554;SDS011;34336;48.270;16.716;2024-02-21T07:08:19;12.23;;;3.40;;
48554;SDS011;34336;48.270;16.716;2024-02-21T07:10:48;7.93;;;3.38;;
48554;SDS011;34336;48.270;16.716;2024-02-21T07:13:16;10.98;;;3.90;;
48554;SDS011;34336;48.270;16.716;2024-02-21T07:15:44;8.40;;;3.25;;
48554;SDS011;34336;48.270;16.716;2024-02-21T07:18:12;7.50;;;3.28;;
48554;SDS011;34336;48.270;16.716;2024-02-21T07:20:39;7.80;;;3.22;;
48554;SDS011;34336;48.270;16.716;2024-02-21T07:23:08;10.23;;;3.47;;
48554;SDS011;34336;48.270;16.716;2024-02-21T07:25:36;10.15;;;3.70;;
48554;SDS011;34336;48.270;16.716;2024-02-21T07:28:04;7.78;;;3.20;;
48554;SDS011;34336;48.270;16.716;2024-02-21T07:30:32;8.88;;;3.30;;
48554;SDS011;34336;48.270;16.716;2024-02-21T07:32:59;8.10;;;3.60;;
48554;SDS011;34336;48.270;16.716;2024-02-21T07:35:27;8.35;;;3.28;;
48554;SDS011;34336;48.270;16.716;2024-02-21T07:37:55;7.88;;;3.00;;
48554;SDS011;34336;48.270;16.716;2024-02-21T07:40:22;8.23;;;3.28;;
48554;SDS011;34336;48.270;16.716;2024-02-21T07:42:50;8.95;;;3.13;;
48554;SDS011;34336;48.270;16.716;2024-02-21T07:45:18;8.73;;;3.05;;
48554;SDS011;34336;48.270;16.716;2024-02-21T07:47:48;8.95;;;2.80;;
48554;SDS011;34336;48.270;16.716;2024-02-21T07:50:16;8.27;;;2.78;;
48554;SDS011;34336;48.270;16.716;2024-02-21T07:52:44;7.75;;;2.97;;
48554;SDS011;34336;48.270;16.716;2024-02-21T07:55:11;7.13;;;2.78;;
48554;SDS011;34336;48.270;16.716;2024-02-21T07:57:39;7.60;;;2.60;;
48554;SDS011;34336;48.270;16.716;2024-02-21T08:00:07;8.93;;;3.60;;
48554;SDS011;34336;48.270;16.716;2024-02-21T08:02:44;9.50;;;3.28;;
48554;SDS011;34336;48.270;16.716;2024-02-21T08:05:11;5.18;;;2.75;;
48554;SDS011;34336;48.270;16.716;2024-02-21T08:07:39;8.05;;;2.53;;
48554;SDS011;34336;48.270;16.716;2024-02-21T08:10:07;7.93;;;2.67;;
48554;SDS011;34336;48.270;16.716;2024-02-21T08:12:35;9.05;;;2.83;;
48554;SDS011;34336;48.270;16.716;2024-02-21T08:15:03;7.80;;;2.67;;
48554;SDS011;34336;48.270;16.716;2024-02-21T08:17:31;10.23;;;2.90;;
48554;SDS011;34336;48.270;16.716;2024-02-21T08:19:59;6.45;;;2.55;;
48554;SDS011;34336;48.270;16.716;2024-02-21T08:22:27;6.20;;;2.50;;
48554;SDS011;34336;48.270;16.716;2024-02-21T08:24:55;10.43;;;2.65;;
48554;SDS011;34336;48.270;16.716;2024-02-21T08:27:22;7.78;;;2.40;;
48554;SDS011;34336;48.270;16.716;2024-02-21T08:29:50;6.38;;;2.35;;
48554;SDS011;34336;48.270;16.716;2024-02-21T08:32:18;9.95;;;2.95;;
48554;SDS011;34336;48.270;16.716;2024-02-21T08:34:45;6.50;;;2.20;;
48554;SDS011;34336;48.270;16.716;2024-02-21T08:37:13;6.85;;;2.88;;
48554;SDS011;34336;48.270;16.716;2024-02-21T08:39:41;7.03;;;2.35;;
48554;SDS011;34336;48.270;16.716;2024-02-21T08:42:08;6.78;;;2.70;;
48554;SDS011;34336;48.270;16.716;2024-02-21T08:44:36;8.25;;;2.60;;
48554;SDS011;34336;48.270;16.716;2024-02-21T08:47:07;5.75;;;2.30;;
48554;SDS011;34336;48.270;16.716;2024-02-21T08:49:37;6.65;;;2.63;;
48554;SDS011;34336;48.270;16.716;2024-02-21T08:52:05;7.63;;;2.50;;
48554;SDS011;34336;48.270;16.716;2024-02-21T08:54:32;6.00;;;2.50;;
48554;SDS011;34336;48.270;16.716;2024-02-21T08:57:00;7.40;;;2.30;;
48554;SDS011;34336;48.270;16.716;2024-02-21T08:59:30;8.52;;;2.28;;
48554;SDS011;34336;48.270;16.716;2024-02-21T09:02:01;7.68;;;2.22;;
48554;SDS011;34336;48.270;16.716;2024-02-21T09:04:30;5.85;;;2.20;;
48554;SDS011;34336;48.270;16.716;2024-02-21T09:06:58;7.03;;;2.10;;
48554;SDS011;34336;48.270;16.716;2024-02-21T09:09:26;7.93;;;2.55;;
48554;SDS011;34336;48.270;16.716;2024-02-21T09:11:55;8.57;;;2.80;;
48554;SDS011;34336;48.270;16.716;2024-02-21T09:14:24;7.63;;;2.15;;
48554;SDS011;34336;48.270;16.716;2024-02-21T09:16:52;4.53;;;2.00;;
48554;SDS011;34336;48.270;16.716;2024-02-21T09:19:19;6.43;;;2.40;;
48554;SDS011;34336;48.270;16.716;2024-02-21T09:21:47;9.23;;;2.30;;
48554;SDS011;34336;48.270;16.716;2024-02-21T09:24:15;7.00;;;2.20;;
48554;SDS011;34336;48.270;16.716;2024-02-21T09:26:43;9.77;;;3.03;;
48554;SDS011;34336;48.270;16.716;2024-02-21T09:29:10;5.85;;;2.13;;
48554;SDS011;34336;48.270;16.716;2024-02-21T09:31:38;7.65;;;2.15;;
48554;SDS011;34336;48.270;16.716;2024-02-21T09:34:06;7.82;;;2.13;;
48554;SDS011;34336;48.270;16.716;2024-02-21T09:36:34;6.97;;;2.30;;
48554;SDS011;34336;48.270;16.716;2024-02-21T09:39:02;6.60;;;2.00;;
48554;SDS011;34336;48.270;16.716;2024-02-21T09:41:29;8.50;;;2.25;;
48554;SDS011;34336;48.270;16.716;2024-02-21T09:43:57;7.20;;;3.08;;
48554;SDS011;34336;48.270;16.716;2024-02-21T09:46:33;5.75;;;1.80;;
48554;SDS011;34336;48.270;16.716;2024-02-21T09:49:47;6.78;;;2.15;;
48554;SDS011;34336;48.270;16.716;2024-02-21T09:51:55;5.90;;;2.15;;
48554;SDS011;34336;48.270;16.716;2024-02-21T09:54:23;4.57;;;1.80;;
48554;SDS011;34336;48.270;16.716;2024-02-21T09:56:51;7.47;;;2.25;;
48554;SDS011;34336;48.270;16.716;2024-02-21T09:59:18;6.65;;;2.17;;
48554;SDS011;34336;48.270;16.716;2024-02-21T10:01:46;5.90;;;2.20;;
48554;SDS011;34336;48.270;16.716;2024-02-21T10:04:14;7.35;;;2.10;;
48554;SDS011;34336;48.270;16.716;2024-02-21T10:06:42;6.72;;;2.00;;
48554;SDS011;34336;48.270;16.716;2024-02-21T10:09:19;4.78;;;1.80;;
48554;SDS011;34336;48.270;16.716;2024-02-21T10:11:48;8.13;;;1.73;;
48554;SDS011;34336;48.270;16.716;2024-02-21T10:14:16;6.90;;;2.22;;
48554;SDS011;34336;48.270;16.716;2024-02-21T10:16:46;6.15;;;2.20;;
48554;SDS011;34336;48.270;16.716;2024-02-21T10:19:20;5.97;;;2.05;;
48554;SDS011;34336;48.270;16.716;2024-02-21T10:22:05;4.78;;;1.98;;
48554;SDS011;34336;48.270;16.716;2024-02-21T10:24:35;6.25;;;2.20;;
48554;SDS011;34336;48.270;16.716;2024-02-21T10:27:07;3.42;;;1.70;;
48554;SDS011;34336;48.270;16.716;2024-02-21T10:29:36;9.55;;;2.45;;
48554;SDS011;34336;48.270;16.716;2024-02-21T10:32:07;6.72;;;2.30;;
48554;SDS011;34336;48.270;16.716;2024-02-21T10:34:36;4.35;;;1.83;;
48554;SDS011;34336;48.270;16.716;2024-02-21T10:37:05;5.63;;;1.63;;
48554;SDS011;34336;48.270;16.716;2024-02-21T10:39:33;6.43;;;2.50;;
48554;SDS011;34336;48.270;16.716;2024-02-21T10:42:02;8.57;;;2.17;;
48554;SDS011;34336;48.270;16.716;2024-02-21T10:44:37;7.57;;;1.80;;
48554;SDS011;34336;48.270;16.716;2024-02-21T10:47:10;5.53;;;1.85;;
48554;SDS011;34336;48.270;16.716;2024-02-21T10:49:39;4.63;;;2.00;;
48554;SDS011;34336;48.270;16.716;2024-02-21T10:52:14;4.22;;;1.80;;
48554;SDS011;34336;48.270;16.716;2024-02-21T10:54:47;5.95;;;1.80;;
48554;SDS011;34336;48.270;16.716;2024-02-21T10:57:16;5.35;;;1.98;;
48554;SDS011;34336;48.270;16.716;2024-02-21T10:59:45;6.30;;;1.73;;
48554;SDS011;34336;48.270;16.716;2024-02-21T11:02:12;6.63;;;2.17;;
48554;SDS011;34336;48.270;16.716;2024-02-21T11:04:41;5.63;;;1.88;;
48554;SDS011;34336;48.270;16.716;2024-02-21T11:07:09;6.30;;;2.10;;
48554;SDS011;34336;48.270;16.716;2024-02-21T11:09:37;7.30;;;2.00;;
48554;SDS011;34336;48.270;16.716;2024-02-21T11:12:05;6.20;;;2.33;;
48554;SDS011;34336;48.270;16.716;2024-02-21T11:14:33;8.40;;;2.75;;
48554;SDS011;34336;48.270;16.716;2024-02-21T11:19:33;7.00;;;2.15;;
48554;SDS011;34336;48.270;16.716;2024-02-21T11:22:01;6.13;;;1.95;;
48554;SDS011;34336;48.270;16.716;2024-02-21T11:24:31;4.20;;;1.80;;
48554;SDS011;34336;48.270;16.716;2024-02-21T11:29:45;5.47;;;1.92;;
48554;SDS011;34336;48.270;16.716;2024-02-21T11:32:16;4.90;;;1.63;;
48554;SDS011;34336;48.270;16.716;2024-02-21T11:34:58;5.50;;;1.70;;
48554;SDS011;34336;48.270;16.716;2024-02-21T11:37:35;5.47;;;2.17;;
48554;SDS011;34336;48.270;16.716;2024-02-21T11:40:06;4.30;;;1.90;;
48554;SDS011;34336;48.270;16.716;2024-02-21T11:42:38;8.05;;;2.20;;
48554;SDS011;34336;48.270;16.716;2024-02-21T11:45:06;5.10;;;1.75;;
48554;SDS011;34336;48.270;16.716;2024-02-21T11:47:36;5.72;;;1.90;;
48554;SDS011;34336;48.270;16.716;2024-02-21T11:50:09;4.15;;;1.80;;
48554;SDS011;34336;48.270;16.716;2024-02-21T11:52:39;5.97;;;1.92;;
48554;SDS011;34336;48.270;16.716;2024-02-21T11:55:07;7.28;;;1.60;;
48554;SDS011;34336;48.270;16.716;2024-02-21T11:57:36;3.10;;;1.55;;
48554;SDS011;34336;48.270;16.716;2024-02-21T12:00:14;7.93;;;2.13;;
48554;SDS011;34336;48.270;16.716;2024-02-21T12:02:42;5.10;;;1.95;;
48554;SDS011;34336;48.270;16.716;2024-02-21T12:05:10;5.57;;;1.77;;
48554;SDS011;34336;48.270;16.716;2024-02-21T12:07:38;8.27;;;1.92;;
48554;SDS011;34336;48.270;16.716;2024-02-21T12:10:10;10.38;;;1.75;;
48554;SDS011;34336;48.270;16.716;2024-02-21T12:12:38;6.55;;;1.55;;
48554;SDS011;34336;48.270;16.716;2024-02-21T12:15:06;7.30;;;1.77;;
48554;SDS011;34336;48.270;16.716;2024-02-21T12:17:38;5.07;;;1.90;;
48554;SDS011;34336;48.270;16.716;2024-02-21T12:20:07;5.10;;;1.42;;
48554;SDS011;34336;48.270;16.716;2024-02-21T12:22:39;4.28;;;1.60;;
48554;SDS011;34336;48.270;16.716;2024-02-21T12:25:16;5.72;;;1.30;;
48554;SDS011;34336;48.270;16.716;2024-02-21T12:27:49;3.42;;;1.20;;
48554;SDS011;34336;48.270;16.716;2024-02-21T12:30:17;5.25;;;1.40;;
48554;SDS011;34336;48.270;16.716;2024-02-21T12:32:46;6.53;;;1.73;;
48554;SDS011;34336;48.270;16.716;2024-02-21T12:35:15;4.40;;;1.63;;
48554;SDS011;34336;48.270;16.716;2024-02-21T12:37:44;6.25;;;1.83;;
48554;SDS011;34336;48.270;16.716;2024-02-21T12:40:12;3.85;;;1.35;;
48554;SDS011;34336;48.270;16.716;2024-02-21T12:42:43;7.00;;;1.73;;
48554;SDS011;34336;48.270;16.716;2024-02-21T12:45:12;5.90;;;1.65;;
48554;SDS011;34336;48.270;16.716;2024-02-21T12:47:42;6.50;;;1.70;;
48554;SDS011;34336;48.270;16.716;2024-02-21T12:50:10;7.05;;;1.60;;
48554;SDS011;34336;48.270;16.716;2024-02-21T12:52:38;5.22;;;1.60;;
48554;SDS011;34336;48.270;16.716;2024-02-21T12:55:05;7.40;;;1.70;;
48554;SDS011;34336;48.270;16.716;2024-02-21T12:57:33;5.30;;;1.63;;
48554;SDS011;34336;48.270;16.716;2024-02-21T13:00:01;4.70;;;1.60;;
48554;SDS011;34336;48.270;16.716;2024-02-21T13:02:30;4.75;;;1.60;;
48554;SDS011;34336;48.270;16.716;2024-02-21T13:04:58;5.20;;;1.75;;
48554;SDS011;34336;48.270;16.716;2024-02-21T13:07:27;5.20;;;1.50;;
48554;SDS011;34336;48.270;16.716;2024-02-21T13:09:55;7.50;;;1.70;;
48554;SDS011;34336;48.270;16.716;2024-02-21T13:12:22;4.13;;;1.40;;
48554;SDS011;34336;48.270;16.716;2024-02-21T13:14:50;5.57;;;1.42;;
48554;SDS011;34336;48.270;16.716;2024-02-21T13:17:17;5.47;;;1.67;;
48554;SDS011;34336;48.270;16.716;2024-02-21T13:19:45;5.63;;;1.65;;
48554;SDS011;34336;48.270;16.716;2024-02-21T13:22:13;2.75;;;1.50;;
48554;SDS011;34336;48.270;16.716;2024-02-21T13:24:41;7.38;;;1.70;;
48554;SDS011;34336;48.270;16.716;2024-02-21T13:27:08;4.93;;;1.30;;
48554;SDS011;34336;48.270;16.716;2024-02-21T13:29:36;8.82;;;2.17;;
48554;SDS011;34336;48.270;16.716;2024-02-21T13:32:04;6.72;;;1.58;;
48554;SDS011;34336;48.270;16.716;2024-02-21T13:34:33;3.70;;;1.48;;
48554;SDS011;34336;48.270;16.716;2024-02-21T13:37:01;7.75;;;2.55;;
48554;SDS011;34336;48.270;16.716;2024-02-21T13:39:29;8.68;;;2.50;;
48554;SDS011;34336;48.270;16.716;2024-02-21T13:41:56;8.30;;;2.25;;
48554;SDS011;34336;48.270;16.716;2024-02-21T13:44:25;8.57;;;2.97;;
48554;SDS011;34336;48.270;16.716;2024-02-21T13:46:53;11.90;;;6.68;;
48554;SDS011;34336;48.270;16.716;2024-02-21T13:49:21;6.65;;;2.40;;
48554;SDS011;34336;48.270;16.716;2024-02-21T13:51:49;4.93;;;1.45;;
48554;SDS011;34336;48.270;16.716;2024-02-21T13:54:16;3.85;;;1.40;;
48554;SDS011;34336;48.270;16.716;2024-02-21T13:56:46;4.97;;;1.75;;
48554;SDS011;34336;48.270;16.716;2024-02-21T13:59:13;4.88;;;1.50;;
48554;SDS011;34336;48.270;16.716;2024-02-21T14:01:41;3.35;;;1.35;;
48554;SDS011;34336;48.270;16.716;2024-02-21T14:04:09;4.35;;;1.92;;
48554;SDS011;34336;48.270;16.716;2024-02-21T14:06:37;7.15;;;1.50;;
48554;SDS011;34336;48.270;16.716;2024-02-21T14:09:10;5.38;;;1.92;;
48554;SDS011;34336;48.270;16.716;2024-02-21T14:11:38;3.70;;;1.40;;
48554;SDS011;34336;48.270;16.716;2024-02-21T14:14:08;6.43;;;1.67;;
48554;SDS011;34336;48.270;16.716;2024-02-21T14:16:36;3.85;;;1.45;;
48554;SDS011;34336;48.270;16.716;2024-02-21T14:19:03;5.53;;;1.27;;
48554;SDS011;34336;48.270;16.716;2024-02-21T14:21:31;5.32;;;1.50;;
48554;SDS011;34336;48.270;16.716;2024-02-21T14:23:59;6.20;;;1.50;;
48554;SDS011;34336;48.270;16.716;2024-02-21T14:26:29;7.40;;;1.42;;
48554;SDS011;34336;48.270;16.716;2024-02-21T14:28:58;7.00;;;1.70;;
48554;SDS011;34336;48.270;16.716;2024-02-21T14:31:25;6.43;;;1.40;;
48554;SDS011;34336;48.270;16.716;2024-02-21T14:33:53;6.82;;;1.50;;
48554;SDS011;34336;48.270;16.716;2024-02-21T14:36:21;5.80;;;1.58;;
48554;SDS011;34336;48.270;16.716;2024-02-21T14:38:50;5.85;;;1.25;;
48554;SDS011;34336;48.270;16.716;2024-02-21T14:41:18;3.60;;;1.35;;
48554;SDS011;34336;48.270;16.716;2024-02-21T14:43:46;3.78;;;1.38;;
48554;SDS011;34336;48.270;16.716;2024-02-21T14:46:14;6.18;;;1.40;;